sensor_id;sensor_type;location;lat;lon;timestamp;pressure;altitude;pressure_sealevel;temperature;humidity
9774;BME280;4926;42.670;23.316;2023-03-21T00:00:35;94334.94;;;13.64;54.92
9774;BME280;4926;42.670;23.316;2023-03-21T00:03:04;94332.50;;;13.54;55.04
9774;BME280;4926;42.670;23.316;2023-03-21T00:05:31;94328.56;;;13.43;55.34
9774;BME280;4926;42.670;23.316;2023-03-21T00:08:02;94333.56;;;13.36;55.43
9774;BME280;4926;42.670;23.316;2023-03-21T00:10:28;94342.31;;;13.28;55.92
9774;BME280;4926;42.670;23.316;2023-03-21T00:12:57;94334.44;;;13.23;55.96
9774;BME280;4926;42.670;23.316;2023-03-21T00:15:27;94335.47;;;13.05;56.64
9774;BME280;4926;42.670;23.316;2023-03-21T00:17:54;94332.00;;;13.04;56.62
9774;BME280;4926;42.670;23.316;2023-03-21T00:20:29;94334.22;;;13.11;56.48
9774;BME280;4926;42.670;23.316;2023-03-21T00:22:58;94335.00;;;13.03;56.99
9774;BME280;4926;42.670;23.316;2023-03-21T00:25:33;94331.72;;;12.84;57.45
9774;BME280;4926;42.670;23.316;2023-03-21T00:28:00;94333.91;;;12.82;57.58
9774;BME280;4926;42.670;23.316;2023-03-21T00:30:28;94341.69;;;12.70;58.28
9774;BME280;4926;42.670;23.316;2023-03-21T00:32:54;94361.47;;;12.69;58.72
9774;BME280;4926;42.670;23.316;2023-03-21T00:35:21;94352.00;;;12.63;58.48
9774;BME280;4926;42.670;23.316;2023-03-21T00:37:48;94346.03;;;12.66;58.99
9774;BME280;4926;42.670;23.316;2023-03-21T00:40:15;94344.94;;;12.67;58.96
9774;BME280;4926;42.670;23.316;2023-03-21T00:42:43;94339.50;;;12.72;58.47
9774;BME280;4926;42.670;23.316;2023-03-21T00:45:10;94344.41;;;12.78;58.34
9774;BME280;4926;42.670;23.316;2023-03-21T00:47:42;94342.63;;;12.74;58.51
9774;BME280;4926;42.670;23.316;2023-03-21T00:50:09;94339.50;;;12.72;58.39
9774;BME280;4926;42.670;23.316;2023-03-21T00:52:37;94343.88;;;12.68;59.06
9774;BME280;4926;42.670;23.316;2023-03-21T00:55:05;94341.91;;;12.60;59.02
9774;BME280;4926;42.670;23.316;2023-03-21T00:57:33;94331.53;;;12.58;59.38
9774;BME280;4926;42.670;23.316;2023-03-21T01:00:01;94331.22;;;12.60;59.11
9774;BME280;4926;42.670;23.316;2023-03-21T01:02:32;94334.28;;;12.45;59.43
9774;BME280;4926;42.670;23.316;2023-03-21T01:04:58;94332.72;;;12.44;59.83
9774;BME280;4926;42.670;23.316;2023-03-21T01:07:25;94334.66;;;12.52;59.70
9774;BME280;4926;42.670;23.316;2023-03-21T01:09:52;94342.53;;;12.57;61.42
9774;BME280;4926;42.670;23.316;2023-03-21T01:12:18;94336.38;;;12.56;61.71
9774;BME280;4926;42.670;23.316;2023-03-21T01:14:48;94338.41;;;12.51;60.49
9774;BME280;4926;42.670;23.316;2023-03-21T01:17:18;94327.13;;;12.54;59.93
9774;BME280;4926;42.670;23.316;2023-03-21T01:19:45;94327.44;;;12.52;60.16
9774;BME280;4926;42.670;23.316;2023-03-21T01:22:11;94331.34;;;12.55;59.79
9774;BME280;4926;42.670;23.316;2023-03-21T01:24:38;94329.19;;;12.57;59.91
9774;BME280;4926;42.670;23.316;2023-03-21T01:27:08;94333.44;;;12.58;59.82
9774;BME280;4926;42.670;23.316;2023-03-21T01:29:35;94330.41;;;12.51;59.44
9774;BME280;4926;42.670;23.316;2023-03-21T01:32:04;94331.47;;;12.50;59.64
9774;BME280;4926;42.670;23.316;2023-03-21T01:34:33;94333.16;;;12.46;59.84
9774;BME280;4926;42.670;23.316;2023-03-21T01:37:03;94334.47;;;12.48;59.80
9774;BME280;4926;42.670;23.316;2023-03-21T01:39:31;94337.81;;;12.54;59.66
9774;BME280;4926;42.670;23.316;2023-03-21T01:41:59;94328.81;;;12.50;60.07
9774;BME280;4926;42.670;23.316;2023-03-21T01:44:27;94329.91;;;12.49;60.00
9774;BME280;4926;42.670;23.316;2023-03-21T01:46:54;94333.06;;;12.51;59.61
9774;BME280;4926;42.670;23.316;2023-03-21T01:49:25;94336.94;;;12.45;59.74
9774;BME280;4926;42.670;23.316;2023-03-21T01:51:56;94337.44;;;12.47;60.08
9774;BME280;4926;42.670;23.316;2023-03-21T01:54:29;94330.50;;;12.46;59.72
9774;BME280;4926;42.670;23.316;2023-03-21T01:56:59;94325.47;;;12.44;59.59
9774;BME280;4926;42.670;23.316;2023-03-21T01:59:29;94328.75;;;12.41;60.12
9774;BME280;4926;42.670;23.316;2023-03-21T02:02:00;94325.41;;;12.35;60.14
9774;BME280;4926;42.670;23.316;2023-03-21T02:04:32;94329.78;;;12.31;60.07
9774;BME280;4926;42.670;23.316;2023-03-21T02:07:05;94326.28;;;12.22;60.12
9774;BME280;4926;42.670;23.316;2023-03-21T02:09:38;94327.47;;;12.16;60.50
9774;BME280;4926;42.670;23.316;2023-03-21T02:12:06;94326.84;;;12.19;60.45
9774;BME280;4926;42.670;23.316;2023-03-21T02:14:37;94322.97;;;12.03;61.03
9774;BME280;4926;42.670;23.316;2023-03-21T02:17:11;94317.84;;;11.93;61.40
9774;BME280;4926;42.670;23.316;2023-03-21T02:23:16;94325.16;;;12.01;61.36
9774;BME280;4926;42.670;23.316;2023-03-21T02:26:05;94319.00;;;12.01;61.28
9774;BME280;4926;42.670;23.316;2023-03-21T02:28:42;94315.53;;;11.65;62.74
9774;BME280;4926;42.670;23.316;2023-03-21T02:31:23;94313.34;;;11.53;63.39
9774;BME280;4926;42.670;23.316;2023-03-21T02:34:43;94309.59;;;11.68;63.36
9774;BME280;4926;42.670;23.316;2023-03-21T02:37:23;94320.25;;;11.81;62.36
9774;BME280;4926;42.670;23.316;2023-03-21T02:40:03;94320.44;;;11.85;62.20
9774;BME280;4926;42.670;23.316;2023-03-21T02:42:39;94320.31;;;11.90;62.08
9774;BME280;4926;42.670;23.316;2023-03-21T02:45:16;94322.59;;;11.96;61.50
9774;BME280;4926;42.670;23.316;2023-03-21T02:47:47;94323.66;;;11.95;61.54
9774;BME280;4926;42.670;23.316;2023-03-21T02:50:20;94303.28;;;11.77;61.79
9774;BME280;4926;42.670;23.316;2023-03-21T02:52:52;94311.06;;;11.87;61.90
9774;BME280;4926;42.670;23.316;2023-03-21T02:55:23;94307.78;;;11.90;61.65
9774;BME280;4926;42.670;23.316;2023-03-21T02:57:52;94310.56;;;11.85;61.58
9774;BME280;4926;42.670;23.316;2023-03-21T03:00:22;94304.13;;;11.86;61.69
9774;BME280;4926;42.670;23.316;2023-03-21T03:02:49;94307.28;;;11.88;61.22
9774;BME280;4926;42.670;23.316;2023-03-21T03:05:19;94313.72;;;11.87;61.57
9774;BME280;4926;42.670;23.316;2023-03-21T03:07:57;94314.88;;;11.95;61.68
9774;BME280;4926;42.670;23.316;2023-03-21T03:10:38;94312.94;;;11.87;61.83
9774;BME280;4926;42.670;23.316;2023-03-21T03:13:22;94309.19;;;11.74;62.40
9774;BME280;4926;42.670;23.316;2023-03-21T03:15:59;94317.13;;;11.66;62.97
9774;BME280;4926;42.670;23.316;2023-03-21T03:18:39;94322.44;;;11.66;62.98
9774;BME280;4926;42.670;23.316;2023-03-21T03:21:16;94324.22;;;11.70;62.95
9774;BME280;4926;42.670;23.316;2023-03-21T03:23:53;94321.03;;;11.55;63.89
9774;BME280;4926;42.670;23.316;2023-03-21T03:26:25;94332.63;;;11.23;65.52
9774;BME280;4926;42.670;23.316;2023-03-21T03:28:57;94337.06;;;11.14;66.36
9774;BME280;4926;42.670;23.316;2023-03-21T03:31:29;94329.50;;;10.89;67.26
9774;BME280;4926;42.670;23.316;2023-03-21T03:34:01;94321.22;;;10.77;67.61
9774;BME280;4926;42.670;23.316;2023-03-21T03:36:34;94335.78;;;10.66;68.60
9774;BME280;4926;42.670;23.316;2023-03-21T03:39:07;94339.53;;;10.65;68.85
9774;BME280;4926;42.670;23.316;2023-03-21T03:41:41;94341.84;;;10.53;68.73
9774;BME280;4926;42.670;23.316;2023-03-21T03:44:12;94339.31;;;10.29;69.61
9774;BME280;4926;42.670;23.316;2023-03-21T03:46:43;94346.94;;;10.17;70.39
9774;BME280;4926;42.670;23.316;2023-03-21T03:49:17;94344.47;;;10.02;71.07
9774;BME280;4926;42.670;23.316;2023-03-21T03:51:52;94337.63;;;9.96;71.56
9774;BME280;4926;42.670;23.316;2023-03-21T03:54:26;94348.13;;;10.06;71.34
9774;BME280;4926;42.670;23.316;2023-03-21T03:56:55;94343.59;;;10.06;71.24
9774;BME280;4926;42.670;23.316;2023-03-21T03:59:22;94339.44;;;10.00;70.91
9774;BME280;4926;42.670;23.316;2023-03-21T04:01:49;94331.66;;;9.85;71.44
9774;BME280;4926;42.670;23.316;2023-03-21T04:04:16;94337.41;;;9.92;71.43
9774;BME280;4926;42.670;23.316;2023-03-21T04:06:43;94333.28;;;9.86;71.46
9774;BME280;4926;42.670;23.316;2023-03-21T04:09:16;94338.38;;;9.83;71.20
9774;BME280;4926;42.670;23.316;2023-03-21T04:11:45;94346.72;;;9.95;70.60
9774;BME280;4926;42.670;23.316;2023-03-21T04:14:12;94341.75;;;10.07;70.21
9774;BME280;4926;42.670;23.316;2023-03-21T04:16:41;94345.38;;;10.16;69.79
9774;BME280;4926;42.670;23.316;2023-03-21T04:19:08;94328.59;;;10.16;69.57
9774;BME280;4926;42.670;23.316;2023-03-21T04:21:34;94331.09;;;10.26;69.23
9774;BME280;4926;42.670;23.316;2023-03-21T04:24:02;94334.06;;;10.24;69.11
9774;BME280;4926;42.670;23.316;2023-03-21T04:26:31;94338.59;;;10.24;69.59
9774;BME280;4926;42.670;23.316;2023-03-21T04:29:02;94336.94;;;10.28;69.95
9774;BME280;4926;42.670;23.316;2023-03-21T04:31:30;94327.63;;;10.44;69.43
9774;BME280;4926;42.670;23.316;2023-03-21T04:33:59;94321.50;;;10.62;69.39
9774;BME280;4926;42.670;23.316;2023-03-21T04:36:31;94328.50;;;10.71;68.62
9774;BME280;4926;42.670;23.316;2023-03-21T04:39:03;94338.19;;;10.81;68.14
9774;BME280;4926;42.670;23.316;2023-03-21T04:41:34;94334.25;;;10.92;67.44
9774;BME280;4926;42.670;23.316;2023-03-21T04:44:03;94334.84;;;10.89;67.70
9774;BME280;4926;42.670;23.316;2023-03-21T04:46:37;94331.97;;;10.99;67.72
9774;BME280;4926;42.670;23.316;2023-03-21T04:49:04;94328.16;;;10.91;68.15
9774;BME280;4926;42.670;23.316;2023-03-21T04:51:34;94337.78;;;10.74;68.66
9774;BME280;4926;42.670;23.316;2023-03-21T04:54:01;94341.44;;;10.46;69.42
9774;BME280;4926;42.670;23.316;2023-03-21T04:56:30;94355.72;;;10.50;69.56
9774;BME280;4926;42.670;23.316;2023-03-21T04:59:04;94338.09;;;10.54;69.21
9774;BME280;4926;42.670;23.316;2023-03-21T05:01:32;94334.13;;;10.70;68.55
9774;BME280;4926;42.670;23.316;2023-03-21T05:04:02;94344.50;;;10.85;68.21
9774;BME280;4926;42.670;23.316;2023-03-21T05:06:32;94344.28;;;10.81;68.51
9774;BME280;4926;42.670;23.316;2023-03-21T05:09:03;94348.16;;;10.57;69.01
9774;BME280;4926;42.670;23.316;2023-03-21T05:11:32;94359.00;;;10.60;69.66
9774;BME280;4926;42.670;23.316;2023-03-21T05:14:03;94330.03;;;10.59;69.30
9774;BME280;4926;42.670;23.316;2023-03-21T05:16:42;94344.75;;;10.70;69.22
9774;BME280;4926;42.670;23.316;2023-03-21T05:19:12;94345.41;;;10.94;68.94
9774;BME280;4926;42.670;23.316;2023-03-21T05:21:40;94345.13;;;11.09;68.13
9774;BME280;4926;42.670;23.316;2023-03-21T05:24:08;94342.13;;;10.97;67.91
9774;BME280;4926;42.670;23.316;2023-03-21T05:26:42;94346.28;;;10.76;68.20
9774;BME280;4926;42.670;23.316;2023-03-21T05:29:10;94361.00;;;10.55;69.41
9774;BME280;4926;42.670;23.316;2023-03-21T05:31:37;94360.88;;;10.28;70.50
9774;BME280;4926;42.670;23.316;2023-03-21T05:34:04;94360.06;;;10.27;70.74
9774;BME280;4926;42.670;23.316;2023-03-21T05:36:34;94362.72;;;10.27;70.79
9774;BME280;4926;42.670;23.316;2023-03-21T05:39:01;94361.88;;;10.32;70.81
9774;BME280;4926;42.670;23.316;2023-03-21T05:41:29;94363.03;;;10.26;70.53
9774;BME280;4926;42.670;23.316;2023-03-21T05:43:56;94362.03;;;10.22;70.47
9774;BME280;4926;42.670;23.316;2023-03-21T05:46:26;94357.72;;;10.26;70.91
9774;BME280;4926;42.670;23.316;2023-03-21T05:48:53;94355.97;;;10.35;70.85
9774;BME280;4926;42.670;23.316;2023-03-21T05:51:19;94355.09;;;10.58;70.20
9774;BME280;4926;42.670;23.316;2023-03-21T05:53:48;94346.00;;;10.59;69.44
9774;BME280;4926;42.670;23.316;2023-03-21T05:56:19;94348.16;;;10.57;70.00
9774;BME280;4926;42.670;23.316;2023-03-21T05:58:45;94339.97;;;10.53;70.03
9774;BME280;4926;42.670;23.316;2023-03-21T06:01:18;94343.22;;;10.50;69.98
9774;BME280;4926;42.670;23.316;2023-03-21T06:03:49;94329.63;;;10.52;69.96
9774;BME280;4926;42.670;23.316;2023-03-21T06:06:18;94343.00;;;10.65;69.00
9774;BME280;4926;42.670;23.316;2023-03-21T06:08:45;94331.94;;;10.72;68.33
9774;BME280;4926;42.670;23.316;2023-03-21T06:11:19;94327.44;;;10.86;68.48
9774;BME280;4926;42.670;23.316;2023-03-21T06:13:48;94328.97;;;11.05;67.80
9774;BME280;4926;42.670;23.316;2023-03-21T06:16:19;94326.50;;;11.36;66.97
9774;BME280;4926;42.670;23.316;2023-03-21T06:18:46;94317.91;;;11.66;66.19
9774;BME280;4926;42.670;23.316;2023-03-21T06:21:14;94301.28;;;11.83;64.51
9774;BME280;4926;42.670;23.316;2023-03-21T06:23:41;94310.66;;;12.16;63.41
9774;BME280;4926;42.670;23.316;2023-03-21T06:26:09;94314.72;;;12.35;63.04
9774;BME280;4926;42.670;23.316;2023-03-21T06:28:36;94301.22;;;12.54;61.59
9774;BME280;4926;42.670;23.316;2023-03-21T06:31:03;94311.72;;;12.81;60.87
9774;BME280;4926;42.670;23.316;2023-03-21T06:33:30;94299.16;;;13.04;59.59
9774;BME280;4926;42.670;23.316;2023-03-21T06:36:02;94292.91;;;12.86;59.45
9774;BME280;4926;42.670;23.316;2023-03-21T06:38:32;94305.13;;;12.79;60.52
9774;BME280;4926;42.670;23.316;2023-03-21T06:41:02;94308.28;;;12.81;60.97
9774;BME280;4926;42.670;23.316;2023-03-21T06:43:29;94318.75;;;12.99;60.34
9774;BME280;4926;42.670;23.316;2023-03-21T06:45:56;94321.63;;;12.81;59.94
9774;BME280;4926;42.670;23.316;2023-03-21T06:48:23;94318.59;;;12.74;60.59
9774;BME280;4926;42.670;23.316;2023-03-21T06:50:51;94319.53;;;12.69;60.65
9774;BME280;4926;42.670;23.316;2023-03-21T06:53:18;94314.44;;;12.90;60.69
9774;BME280;4926;42.670;23.316;2023-03-21T06:55:49;94323.72;;;12.84;60.81
9774;BME280;4926;42.670;23.316;2023-03-21T06:58:16;94324.50;;;12.93;59.64
9774;BME280;4926;42.670;23.316;2023-03-21T07:00:43;94325.31;;;13.15;59.03
9774;BME280;4926;42.670;23.316;2023-03-21T07:03:10;94322.72;;;13.32;57.78
9774;BME280;4926;42.670;23.316;2023-03-21T07:05:38;94310.03;;;13.55;57.14
9774;BME280;4926;42.670;23.316;2023-03-21T07:08:06;94308.03;;;13.78;56.32
9774;BME280;4926;42.670;23.316;2023-03-21T07:10:37;94314.53;;;14.02;54.32
9774;BME280;4926;42.670;23.316;2023-03-21T07:13:06;94308.53;;;14.05;54.60
9774;BME280;4926;42.670;23.316;2023-03-21T07:15:33;94306.81;;;14.18;54.54
9774;BME280;4926;42.670;23.316;2023-03-21T07:18:02;94312.00;;;14.14;53.98
9774;BME280;4926;42.670;23.316;2023-03-21T07:20:29;94305.84;;;13.97;54.29
9774;BME280;4926;42.670;23.316;2023-03-21T07:22:56;94318.31;;;14.18;54.03
9774;BME280;4926;42.670;23.316;2023-03-21T07:25:25;94318.16;;;14.06;54.37
9774;BME280;4926;42.670;23.316;2023-03-21T07:27:52;94305.09;;;14.13;54.43
9774;BME280;4926;42.670;23.316;2023-03-21T07:30:21;94321.31;;;14.25;54.58
9774;BME280;4926;42.670;23.316;2023-03-21T07:32:47;94313.31;;;14.42;53.63
9774;BME280;4926;42.670;23.316;2023-03-21T07:35:17;94305.09;;;14.13;54.05
9774;BME280;4926;42.670;23.316;2023-03-21T07:37:44;94307.16;;;14.16;53.98
9774;BME280;4926;42.670;23.316;2023-03-21T07:40:13;94303.25;;;14.31;53.18
9774;BME280;4926;42.670;23.316;2023-03-21T07:42:40;94312.19;;;14.43;52.92
9774;BME280;4926;42.670;23.316;2023-03-21T07:45:10;94311.25;;;14.65;52.29
9774;BME280;4926;42.670;23.316;2023-03-21T07:47:40;94308.88;;;14.72;52.06
9774;BME280;4926;42.670;23.316;2023-03-21T07:50:10;94307.59;;;14.70;52.68
9774;BME280;4926;42.670;23.316;2023-03-21T07:52:37;94299.38;;;14.92;52.46
9774;BME280;4926;42.670;23.316;2023-03-21T07:55:07;94310.31;;;15.16;52.04
9774;BME280;4926;42.670;23.316;2023-03-21T07:57:33;94315.34;;;15.26;52.04
9774;BME280;4926;42.670;23.316;2023-03-21T08:00:00;94315.44;;;15.38;51.48
9774;BME280;4926;42.670;23.316;2023-03-21T08:02:28;94312.44;;;15.48;50.92
9774;BME280;4926;42.670;23.316;2023-03-21T08:04:56;94305.13;;;15.57;50.24
9774;BME280;4926;42.670;23.316;2023-03-21T08:07:24;94301.44;;;15.41;49.87
9774;BME280;4926;42.670;23.316;2023-03-21T08:09:52;94308.66;;;15.49;49.71
9774;BME280;4926;42.670;23.316;2023-03-21T08:12:19;94308.78;;;15.52;49.71
9774;BME280;4926;42.670;23.316;2023-03-21T08:14:45;94293.63;;;15.56;49.46
9774;BME280;4926;42.670;23.316;2023-03-21T08:17:12;94298.09;;;15.73;49.46
9774;BME280;4926;42.670;23.316;2023-03-21T08:19:39;94295.09;;;15.75;48.75
9774;BME280;4926;42.670;23.316;2023-03-21T08:22:07;94276.06;;;15.59;48.87
9774;BME280;4926;42.670;23.316;2023-03-21T08:24:35;94284.34;;;15.75;48.67
9774;BME280;4926;42.670;23.316;2023-03-21T08:27:04;94279.66;;;15.92;48.51
9774;BME280;4926;42.670;23.316;2023-03-21T08:29:31;94276.78;;;15.97;48.38
9774;BME280;4926;42.670;23.316;2023-03-21T08:32:00;94272.25;;;15.89;47.87
9774;BME280;4926;42.670;23.316;2023-03-21T08:34:30;94267.34;;;15.91;48.07
9774;BME280;4926;42.670;23.316;2023-03-21T08:36:56;94273.59;;;16.04;48.10
9774;BME280;4926;42.670;23.316;2023-03-21T08:39:24;94280.44;;;16.13;47.75
9774;BME280;4926;42.670;23.316;2023-03-21T08:41:51;94272.91;;;16.27;47.87
9774;BME280;4926;42.670;23.316;2023-03-21T08:44:18;94279.56;;;16.50;47.41
9774;BME280;4926;42.670;23.316;2023-03-21T08:46:46;94282.81;;;16.56;46.99
9774;BME280;4926;42.670;23.316;2023-03-21T08:49:13;94270.38;;;16.10;47.71
9774;BME280;4926;42.670;23.316;2023-03-21T08:51:39;94275.47;;;16.24;47.51
9774;BME280;4926;42.670;23.316;2023-03-21T08:54:17;94273.84;;;16.31;47.01
9774;BME280;4926;42.670;23.316;2023-03-21T08:56:45;94272.16;;;16.47;46.84
9774;BME280;4926;42.670;23.316;2023-03-21T08:59:12;94265.84;;;16.43;46.70
9774;BME280;4926;42.670;23.316;2023-03-21T09:01:41;94260.78;;;16.62;46.23
9774;BME280;4926;42.670;23.316;2023-03-21T09:04:09;94262.63;;;16.70;45.84
9774;BME280;4926;42.670;23.316;2023-03-21T09:06:36;94259.69;;;16.63;46.06
9774;BME280;4926;42.670;23.316;2023-03-21T09:09:07;94247.81;;;16.64;46.12
9774;BME280;4926;42.670;23.316;2023-03-21T09:11:34;94252.38;;;16.64;45.93
9774;BME280;4926;42.670;23.316;2023-03-21T09:14:02;94250.16;;;16.66;46.00
9774;BME280;4926;42.670;23.316;2023-03-21T09:16:29;94248.16;;;16.42;46.43
9774;BME280;4926;42.670;23.316;2023-03-21T09:18:56;94216.34;;;15.91;47.37
9774;BME280;4926;42.670;23.316;2023-03-21T09:21:24;94238.66;;;16.24;47.42
9774;BME280;4926;42.670;23.316;2023-03-21T09:23:53;94248.28;;;16.46;46.98
9774;BME280;4926;42.670;23.316;2023-03-21T09:26:24;94235.00;;;16.49;46.87
9774;BME280;4926;42.670;23.316;2023-03-21T09:28:52;94235.13;;;16.53;46.48
9774;BME280;4926;42.670;23.316;2023-03-21T09:31:24;94220.91;;;16.64;46.17
9774;BME280;4926;42.670;23.316;2023-03-21T09:33:53;94219.59;;;16.70;45.58
9774;BME280;4926;42.670;23.316;2023-03-21T09:36:24;94227.69;;;16.83;45.65
9774;BME280;4926;42.670;23.316;2023-03-21T09:38:52;94224.78;;;16.76;45.29
9774;BME280;4926;42.670;23.316;2023-03-21T09:41:43;94209.75;;;16.74;45.31
9774;BME280;4926;42.670;23.316;2023-03-21T09:44:26;94201.50;;;16.92;45.40
9774;BME280;4926;42.670;23.316;2023-03-21T09:47:02;94192.31;;;17.05;44.67
9774;BME280;4926;42.670;23.316;2023-03-21T09:49:34;94195.66;;;16.90;44.76
9774;BME280;4926;42.670;23.316;2023-03-21T09:52:13;94201.50;;;17.04;44.44
9774;BME280;4926;42.670;23.316;2023-03-21T09:54:43;94195.56;;;16.86;45.31
9774;BME280;4926;42.670;23.316;2023-03-21T09:57:18;94178.19;;;16.96;44.81
9774;BME280;4926;42.670;23.316;2023-03-21T09:59:49;94196.69;;;17.21;44.63
9774;BME280;4926;42.670;23.316;2023-03-21T10:02:35;94193.44;;;17.28;44.62
9774;BME280;4926;42.670;23.316;2023-03-21T10:05:10;94188.50;;;17.30;44.22
9774;BME280;4926;42.670;23.316;2023-03-21T10:07:40;94180.00;;;17.04;44.55
9774;BME280;4926;42.670;23.316;2023-03-21T10:10:14;94191.63;;;17.08;44.88
9774;BME280;4926;42.670;23.316;2023-03-21T10:12:43;94180.88;;;17.32;44.65
9774;BME280;4926;42.670;23.316;2023-03-21T10:15:15;94171.19;;;17.67;44.47
9774;BME280;4926;42.670;23.316;2023-03-21T10:17:52;94167.84;;;18.10;43.25
9774;BME280;4926;42.670;23.316;2023-03-21T10:20:22;94157.19;;;18.56;42.91
9774;BME280;4926;42.670;23.316;2023-03-21T10:22:51;94156.78;;;18.85;42.42
9774;BME280;4926;42.670;23.316;2023-03-21T10:25:20;94147.13;;;19.66;41.64
9774;BME280;4926;42.670;23.316;2023-03-21T10:27:49;94140.50;;;20.17;40.57
9774;BME280;4926;42.670;23.316;2023-03-21T10:30:27;94135.50;;;20.38;39.51
9774;BME280;4926;42.670;23.316;2023-03-21T10:32:59;94141.75;;;19.66;40.42
9774;BME280;4926;42.670;23.316;2023-03-21T10:35:29;94152.50;;;18.84;41.62
9774;BME280;4926;42.670;23.316;2023-03-21T10:37:58;94153.91;;;18.94;41.45
9774;BME280;4926;42.670;23.316;2023-03-21T10:40:26;94151.22;;;19.10;41.42
9774;BME280;4926;42.670;23.316;2023-03-21T10:42:56;94143.19;;;19.29;41.36
9774;BME280;4926;42.670;23.316;2023-03-21T10:45:23;94145.16;;;19.47;41.27
9774;BME280;4926;42.670;23.316;2023-03-21T10:47:53;94145.59;;;19.49;40.69
9774;BME280;4926;42.670;23.316;2023-03-21T10:50:21;94145.47;;;19.61;40.27
9774;BME280;4926;42.670;23.316;2023-03-21T10:52:55;94138.97;;;19.62;40.34
9774;BME280;4926;42.670;23.316;2023-03-21T10:55:26;94140.28;;;19.53;40.51
9774;BME280;4926;42.670;23.316;2023-03-21T10:57:56;94132.03;;;19.46;40.47
9774;BME280;4926;42.670;23.316;2023-03-21T11:00:27;94123.72;;;19.54;39.88
9774;BME280;4926;42.670;23.316;2023-03-21T11:02:58;94123.50;;;19.44;40.75
9774;BME280;4926;42.670;23.316;2023-03-21T11:05:34;94123.66;;;19.51;40.67
9774;BME280;4926;42.670;23.316;2023-03-21T11:08:03;94113.69;;;19.20;41.03
9774;BME280;4926;42.670;23.316;2023-03-21T11:10:36;94116.75;;;19.19;40.71
9774;BME280;4926;42.670;23.316;2023-03-21T11:13:07;94085.59;;;19.06;40.36
9774;BME280;4926;42.670;23.316;2023-03-21T11:15:41;94112.53;;;19.21;40.38
9774;BME280;4926;42.670;23.316;2023-03-21T11:18:13;94105.25;;;19.56;39.05
9774;BME280;4926;42.670;23.316;2023-03-21T11:20:48;94103.03;;;19.43;39.47
9774;BME280;4926;42.670;23.316;2023-03-21T11:23:16;94102.13;;;19.54;39.18
9774;BME280;4926;42.670;23.316;2023-03-21T11:25:43;94095.97;;;19.54;38.92
9774;BME280;4926;42.670;23.316;2023-03-21T11:28:16;94096.78;;;19.39;39.34
9774;BME280;4926;42.670;23.316;2023-03-21T11:30:52;94078.16;;;19.34;39.44
9774;BME280;4926;42.670;23.316;2023-03-21T11:33:21;94080.25;;;19.59;39.15
9774;BME280;4926;42.670;23.316;2023-03-21T11:36:06;94075.03;;;19.51;39.14
9774;BME280;4926;42.670;23.316;2023-03-21T11:38:36;94071.50;;;19.47;38.44
9774;BME280;4926;42.670;23.316;2023-03-21T11:41:04;94068.38;;;19.45;39.00
9774;BME280;4926;42.670;23.316;2023-03-21T11:43:37;94063.94;;;19.37;38.96
9774;BME280;4926;42.670;23.316;2023-03-21T11:46:06;94067.47;;;19.22;39.32
9774;BME280;4926;42.670;23.316;2023-03-21T11:48:38;94063.47;;;19.31;39.49
9774;BME280;4926;42.670;23.316;2023-03-21T11:51:16;94063.69;;;19.26;39.64
9774;BME280;4926;42.670;23.316;2023-03-21T11:53:48;94061.97;;;19.18;39.55
9774;BME280;4926;42.670;23.316;2023-03-21T11:56:28;94049.19;;;19.31;39.30
9774;BME280;4926;42.670;23.316;2023-03-21T11:59:16;94059.75;;;19.05;39.42
9774;BME280;4926;42.670;23.316;2023-03-21T12:01:54;94055.16;;;18.89;39.39
9774;BME280;4926;42.670;23.316;2023-03-21T12:07:39;94038.38;;;18.96;39.27
9774;BME280;4926;42.670;23.316;2023-03-21T12:10:30;94042.53;;;18.93;39.55
9774;BME280;4926;42.670;23.316;2023-03-21T12:15:52;94034.13;;;18.79;39.84
9774;BME280;4926;42.670;23.316;2023-03-21T12:18:36;94033.16;;;18.87;39.39
9774;BME280;4926;42.670;23.316;2023-03-21T12:21:17;94035.69;;;18.80;39.18
9774;BME280;4926;42.670;23.316;2023-03-21T12:23:55;94020.13;;;18.74;38.49
9774;BME280;4926;42.670;23.316;2023-03-21T12:26:28;94021.97;;;18.54;38.63
9774;BME280;4926;42.670;23.316;2023-03-21T12:29:11;94023.53;;;18.55;38.89
9774;BME280;4926;42.670;23.316;2023-03-21T12:31:53;94015.63;;;18.62;39.30
9774;BME280;4926;42.670;23.316;2023-03-21T12:34:43;94008.16;;;18.56;39.83
9774;BME280;4926;42.670;23.316;2023-03-21T12:37:17;94014.13;;;18.65;39.65
9774;BME280;4926;42.670;23.316;2023-03-21T12:39:49;94009.09;;;18.63;39.76
9774;BME280;4926;42.670;23.316;2023-03-21T12:42:46;94012.53;;;18.79;39.25
9774;BME280;4926;42.670;23.316;2023-03-21T12:45:19;94005.63;;;18.63;38.95
9774;BME280;4926;42.670;23.316;2023-03-21T12:47:50;94010.03;;;18.71;39.22
9774;BME280;4926;42.670;23.316;2023-03-21T12:50:23;94003.69;;;18.63;39.59
9774;BME280;4926;42.670;23.316;2023-03-21T12:52:54;94007.63;;;18.66;39.61
9774;BME280;4926;42.670;23.316;2023-03-21T12:55:25;94000.56;;;18.61;39.30
9774;BME280;4926;42.670;23.316;2023-03-21T12:57:57;93997.41;;;18.28;39.52
9774;BME280;4926;42.670;23.316;2023-03-21T13:00:34;93990.84;;;18.10;39.84
9774;BME280;4926;42.670;23.316;2023-03-21T13:03:03;93995.69;;;18.20;39.87
9774;BME280;4926;42.670;23.316;2023-03-21T13:05:38;93994.63;;;18.25;40.06
9774;BME280;4926;42.670;23.316;2023-03-21T13:08:10;93979.78;;;18.31;39.94
9774;BME280;4926;42.670;23.316;2023-03-21T13:10:43;93973.44;;;18.23;39.94
9774;BME280;4926;42.670;23.316;2023-03-21T13:13:16;93981.44;;;18.35;40.01
9774;BME280;4926;42.670;23.316;2023-03-21T13:15:59;93971.38;;;18.48;39.63
9774;BME280;4926;42.670;23.316;2023-03-21T13:18:34;93977.59;;;18.67;39.57
9774;BME280;4926;42.670;23.316;2023-03-21T13:21:11;93975.50;;;18.76;39.62
9774;BME280;4926;42.670;23.316;2023-03-21T13:23:39;93967.94;;;18.35;39.40
9774;BME280;4926;42.670;23.316;2023-03-21T13:26:09;93973.25;;;18.16;39.94
9774;BME280;4926;42.670;23.316;2023-03-21T13:28:38;93975.44;;;18.11;40.20
9774;BME280;4926;42.670;23.316;2023-03-21T13:31:17;93975.88;;;17.97;40.65
9774;BME280;4926;42.670;23.316;2023-03-21T13:33:45;93972.31;;;17.93;41.11
9774;BME280;4926;42.670;23.316;2023-03-21T13:36:14;93965.97;;;18.01;41.27
9774;BME280;4926;42.670;23.316;2023-03-21T13:38:48;93967.25;;;18.07;40.93